Flight Track Log - Related Links

Times and Time Zones

All times are in EST time to prevent confusion due to time zone crossing. See the N789EX flight status page for this flight to view local times or setup timezone preferences in your user account.

Time Position Orientation Groundspeed Altitude Reporting Facility
EST Latitude Longitude Course Direction KTS MPH feet Rate Location/Type
Sun 01:50:30 PM 47.5920 -122.3540 330° Northwest 240 276 2,100  Level FlightAware ADS-B
Sun 01:51:12 PM 47.6270 -122.4070 314° West 255 293 4,100 2,917 Climbing FlightAware ADS-B
Sun 01:51:42 PM 47.6450 -122.4530 300° West 260 299 5,600 2,955 Climbing FlightAware ADS-B
Sun 01:52:19 PM 47.6880 -122.4750 341° North 285 328 7,400 2,710 Climbing FlightAware ADS-B
Sun 01:52:44 PM 47.7220 -122.4720 North 288 331 8,400 1,867 Climbing FlightAware ADS-B
Sun 01:53:04 PM 47.7490 -122.4620 14° North 298 343 8,800 720 Climbing FlightAware ADS-B
Sun 01:53:34 PM 47.7840 -122.4260 35° Northeast 310 357 9,000 1,286 Climbing FlightAware ADS-B
Sun 01:54:14 PM 47.8270 -122.3790 36° Northeast 324 373 10,300 1,453 Climbing FlightAware ADS-B
Sun 01:55:09 PM 47.9050 -122.2940 36° Northeast 388 447 11,300 1,200 Climbing FlightAware ADS-B
Sun 01:55:39 PM 47.9540 -122.2530 29° Northeast 408 470 12,000 2,021 Climbing FlightAware ADS-B
Sun 01:56:44 PM 48.0640 -122.1730 26° Northeast 426 490 14,500 2,127 Climbing FlightAware ADS-B
Sun 01:57:29 PM 48.1210 -122.0640 52° Northeast 461 531 15,900 1,950 Climbing FlightAware ADS-B
Sun 01:58:04 PM 48.1210 -121.9500 90° East 467 537 17,100 1,971 Climbing FlightAware ADS-B
Sun 01:58:39 PM 48.1160 -121.8460 94° East 471 542 18,200 1,958 Climbing FlightAware ADS-B
Sun 01:59:39 PM 48.1060 -121.6390 94° East 484 557 20,200 1,959 Climbing FlightAware ADS-B
Sun 02:00:17 PM 48.1000 -121.5240 94° East 485 558 21,400 1,636 Climbing FlightAware ADS-B
Sun 02:00:45 PM 48.0950 -121.4250 94° East 481 554 22,000 507 Climbing FlightAware ADS-B
Sun 02:01:28 PM 48.0880 -121.2910 94° East 493 567 22,000  Level FlightAware ADS-B
Sun 02:02:08 PM 48.0810 -121.1460 94° East 508 585 22,000  Level FlightAware ADS-B
Sun 02:02:38 PM 48.0750 -121.0350 95° East 509 586 22,000  Level FlightAware ADS-B
Sun 02:03:32 PM 48.0640 -120.8450 95° East 525 604 22,000  Level FlightAware ADS-B
Sun 02:04:02 PM 48.0590 -120.7440 94° East 525 604 22,000  Level FlightAware ADS-B
Sun 02:04:42 PM 48.0500 -120.6000 95° East 543 625 22,000  Level FlightAware ADS-B
Sun 02:05:23 PM 48.0420 -120.4430 94° East 544 626 22,000  Level FlightAware ADS-B
Sun 02:05:53 PM 48.0360 -120.3230 94° East 547 629 22,000  Level FlightAware ADS-B
Sun 02:06:35 PM 48.0270 -120.1610 95° East 549 632 22,000  Level FlightAware ADS-B
Sun 02:07:24 PM 48.0200 -120.0030 94° East 549 632 22,000  Level FlightAware ADS-B
Sun 02:08:00 PM 48.0150 -119.8880 94° East 549 632 22,000  Level FlightAware ADS-B
Sun 02:08:36 PM 48.0090 -119.7720 94° East 549 632 22,000  Level FlightAware ADS-B
Sun 02:09:35 PM 48.0000 -119.5820 94° East 549 632 22,000  Level FlightAware ADS-B
Sun 02:10:12 PM 47.9950 -119.4630 94° East 549 632 22,000  Level FlightAware ADS-B
Sun 02:10:25 PM 47.9930 -119.4210 94° East 549 632 22,000  Level FlightAware ADS-B
Sun 02:11:22 PM 48.0183 -119.1136 94° East 545 627 22,000 -51 Level Seattle Center
Sun 02:12:23 PM 47.9947 -118.8961 99° East 534 615 21,900  Descending Seattle Center
Sun 02:13:23 PM 47.9597 -118.6811 104° East 534 615 22,000  Climbing Seattle Center
Sun 02:14:24 PM 47.9158 -118.4664 107° East 541 623 21,900 -49 Descending Seattle Center
Sun 02:15:25 PM 47.8764 -118.2508 105° East 541 623 21,900 49 Level Seattle Center
Sun 02:16:26 PM 47.8542 -118.0406 99° East 518 596 22,000 492 Climbing Seattle Center
Sun 02:17:27 PM 47.8339 -117.8258 98° East 524 603 22,900 492 Climbing Seattle Center
Sun 02:18:28 PM 47.8233 -117.5581 93° East 540 621 23,000 49 Climbing Seattle Center
Sun 02:19:29 PM 47.8117 -117.3364 94° East 537 618 23,000  Level Seattle Center
Sun 02:20:30 PM 47.7931 -117.1097 97° East 541 623 23,000 -49 Level Seattle Center
Sun 02:21:31 PM 47.7781 -116.8767 95° East 552 635 22,900 -49 Descending Seattle Center
Sun 02:22:32 PM 47.7692 -116.6444 93° East 556 640 22,900 -49 Level Seattle Center
Sun 02:23:33 PM 47.7706 -116.4153 89° East 555 639 22,800 -49 Descending Seattle Center
Sun 02:24:34 PM 47.7156 -116.2094 112° Southeast 556 640 22,800 49 Level Seattle Center
Sun 02:25:35 PM 47.5853 -116.1617 166° South 517 595 22,900  Climbing Seattle Center
Sun 02:26:36 PM 47.5103 -116.2947 230° Southwest 476 548 22,800 -49 Descending Seattle Center
Sun 02:27:37 PM 47.5383 -116.4678 284° West 445 512 22,800  Level Seattle Center
Sun 02:28:38 PM 47.5825 -116.6367 291° West 443 510 22,800 -49 Level Seattle Center
Sun 02:29:39 PM 47.6267 -116.8036 291° West 441 507 22,700 -99 Descending Seattle Center
Sun 02:30:39 PM 47.6656 -116.9736 289° West 442 509 22,600 -50 Descending Seattle Center
Sun 02:31:40 PM 47.7086 -117.1386 291° West 444 511 22,600 148 Level Seattle Center
Sun 02:32:41 PM 47.7594 -117.3417 290° West 448 516 22,900 148 Climbing Seattle Center
Sun 02:33:42 PM 47.7833 -117.5161 282° West 437 503 22,900 -49 Level Seattle Center
Sun 02:34:43 PM 47.7394 -117.6786 248° West 436 502 22,800 -49 Descending Seattle Center
Sun 02:35:44 PM 47.6767 -117.8342 239° Southwest 441 507 22,800 -49 Level Seattle Center
Sun 02:36:45 PM 47.6003 -117.9764 231° Southwest 446 513 22,700  Descending Seattle Center
Sun 02:37:46 PM 47.4797 -118.0422 200° South 479 551 22,800 46 Climbing Seattle Center
Sun 02:43:19 PM 46.7460 -118.3020 200° South 479 551 23,000 33 Climbing FlightAware ADS-B
Sun 02:43:52 PM 46.6730 -118.3210 190° South 482 555 23,000  Level FlightAware ADS-B
Sun 02:44:53 PM 46.5380 -118.3560 190° South 480 552 23,000  Level FlightAware ADS-B
Sun 02:45:25 PM 46.4670 -118.3460 174° South 507 583 23,000  Level FlightAware ADS-B
Sun 02:45:58 PM 46.4090 -118.2740 139° Southeast 530 610 23,000  Level FlightAware ADS-B
Sun 02:47:02 PM 46.3290 -118.1200 127° Southeast 530 610 23,000  Level FlightAware ADS-B
Sun 02:47:38 PM 46.2840 -118.0330 127° Southeast 530 610 23,000  Level FlightAware ADS-B
Sun 02:48:26 PM 46.1950 -117.8490 125° Southeast 525 604 23,000  Level FlightAware ADS-B
Sun 02:48:52 PM 46.1590 -117.7780 126° Southeast 525 604 23,000  Level FlightAware ADS-B
Sun 02:49:56 PM 46.0720 -117.6060 126° Southeast 526 605 23,000  Level FlightAware ADS-B
Sun 02:50:38 PM 46.0050 -117.4740 126° Southeast 528 608 23,000  Level FlightAware ADS-B
Sun 02:51:20 PM 45.9550 -117.3670 124° Southeast 530 610 23,000  Level FlightAware ADS-B
Sun 02:51:57 PM 45.9130 -117.2740 123° Southeast 530 610 23,000  Level FlightAware ADS-B
Sun 02:52:31 PM 45.8740 -117.1880 123° Southeast 530 610 23,000  Level FlightAware ADS-B
Sun 02:53:07 PM 45.8340 -117.0980 123° Southeast 530 610 23,000  Level FlightAware ADS-B
Sun 02:53:44 PM 45.7920 -117.0050 123° Southeast 530 610 23,000  Level FlightAware ADS-B
Sun 02:54:09 PM 45.7630 -116.9420 123° Southeast 530 610 23,000  Level FlightAware ADS-B
Sun 02:54:45 PM 45.7220 -116.8520 123° Southeast 530 610 23,000 -17 Level FlightAware ADS-B
Sun 02:59:54 PM 46.1030 -117.4140 314° West 440 506 22,900 -16 Descending FlightAware ADS-B
Sun 03:01:06 PM 46.1400 -117.5970 286° West 362 417 22,900 58 Level FlightAware ADS-B
Sun 03:01:38 PM 46.1550 -117.6680 287° West 327 376 23,000 79 Climbing FlightAware ADS-B
Sun 03:02:22 PM 46.1790 -117.7610 290° West 360 414 23,000  Level FlightAware ADS-B
Sun 03:02:57 PM 46.2080 -117.8390 298° West 396 456 23,000  Level FlightAware ADS-B
Sun 03:03:30 PM 46.2370 -117.9170 298° West 425 489 23,000  Level FlightAware ADS-B
Sun 03:04:13 PM 46.2800 -118.0310 299° West 453 521 23,000  Level FlightAware ADS-B
Sun 03:04:51 PM 46.3130 -118.1210 298° West 452 520 23,000 85 Level FlightAware ADS-B
Sun 03:05:24 PM 46.3510 -118.2230 298° West 459 528 23,100  Climbing FlightAware ADS-B
Sun 03:06:00 PM 46.3850 -118.3230 296° West 461 531 23,000 -58 Descending FlightAware ADS-B
Sun 03:07:08 PM 46.4400 -118.5010 294° West 394 453 23,000  Level FlightAware ADS-B
Sun 03:07:36 PM 46.4580 -118.5710 290° West 411 473 23,000 -65 Level FlightAware ADS-B
Sun 03:08:41 PM 46.4980 -118.7260 291° West 352 405 22,900  Descending FlightAware ADS-B
Sun 03:09:23 PM 46.5220 -118.8160 291° West 364 419 23,000 71 Climbing FlightAware ADS-B
Sun 03:10:05 PM 46.5540 -118.9180 295° West 408 470 23,000  Level FlightAware ADS-B
Sun 03:10:35 PM 46.5840 -118.9910 301° West 434 499 23,000  Level FlightAware ADS-B
Sun 03:11:02 PM 46.6110 -119.0580 300° West 453 521 23,000  Level FlightAware ADS-B
Sun 03:12:12 PM 46.6810 -119.2480 298° West 460 529 23,000 -45 Level FlightAware ADS-B
Sun 03:13:16 PM 46.7400 -119.4290 295° West 456 525 22,900 -118 Descending FlightAware ADS-B
Sun 03:13:54 PM 46.7730 -119.5330 295° West 455 524 22,800 61 Descending FlightAware ADS-B
Sun 03:14:54 PM 46.8310 -119.6970 297° West 459 528 23,000 67 Climbing FlightAware ADS-B
Sun 03:15:23 PM 46.8760 -119.7590 317° Northwest 483 556 22,900 -120 Descending FlightAware ADS-B
Sun 03:15:44 PM 46.9220 -119.7730 348° North 506 582 22,900  Level FlightAware ADS-B
Sun 03:16:42 PM 47.0290 -119.6510 38° Northeast 542 624 22,900  Level FlightAware ADS-B
Sun 03:16:59 PM 47.0350 -119.5890 82° East 540 621 22,900 -115 Level FlightAware ADS-B
Sun 03:17:34 PM 47.0090 -119.4730 108° East 524 603 22,800  Descending FlightAware ADS-B
Sun 03:18:02 PM 46.9660 -119.3960 129° Southeast 522 601 22,900 316 Climbing FlightAware ADS-B
Sun 03:18:31 PM 46.9220 -119.3170 129° Southeast 524 603 23,100 92 Climbing FlightAware ADS-B
Sun 03:19:07 PM 46.8680 -119.2140 127° Southeast 530 610 23,000 -300 Descending FlightAware ADS-B
Sun 03:19:51 PM 46.8060 -119.0910 126° Southeast 518 596 22,700 -217 Descending FlightAware ADS-B
Sun 03:20:30 PM 46.7550 -118.9850 125° Southeast 470 541 22,700 82 Level FlightAware ADS-B
Sun 03:21:04 PM 46.7170 -118.8990 123° Southeast 425 489 22,800 -169 Climbing FlightAware ADS-B
Sun 03:21:41 PM 46.6770 -118.8120 124° Southeast 393 452 22,500 -783 Descending FlightAware ADS-B
Sun 03:22:13 PM 46.6450 -118.7440 124° Southeast 383 441 21,900 -1,545 Descending FlightAware ADS-B
Sun 03:22:47 PM 46.6110 -118.6750 126° Southeast 384 442 20,800 -1,810 Descending FlightAware ADS-B
Sun 03:23:16 PM 46.5780 -118.6150 129° Southeast 387 445 20,000 -800 Descending FlightAware ADS-B
Sun 03:23:47 PM 46.5450 -118.5530 128° Southeast 388 447 20,000 -655 Level FlightAware ADS-B
Sun 03:24:11 PM 46.5330 -118.4920 106° East 397 457 19,400 -1,680 Descending FlightAware ADS-B
Sun 03:25:02 PM 46.5890 -118.4020 48° Northeast 358 412 17,900 -1,778 Descending FlightAware ADS-B
Sun 03:25:05 PM 46.5930 -118.4010 10° North 356 410 17,800 -107 Descending FlightAware ADS-B
Sun 03:25:58 PM 46.6670 -118.3920 North 356 410 17,800  Level FlightAware ADS-B
Sun 03:26:34 PM 46.7170 -118.3850 North 356 410 17,800  Level FlightAware ADS-B
Sun 03:27:47 PM 46.8190 -118.3720 North 356 410 17,800  Level FlightAware ADS-B
Sun 03:28:21 PM 46.8660 -118.3660 North 356 410 17,800  Level FlightAware ADS-B
Sun 03:28:57 PM 46.9170 -118.3600 North 356 410 17,800 -5,750 Level FlightAware ADS-B
Sun 03:29:33 PM 46.8789 -118.6994 North 267 307 10,900 -4,825 Descending Seattle Center
Sun 03:30:34 PM 46.9033 -118.7847 293° West 231 266 10,000 -1,082 Descending Seattle Center
Sun 03:31:35 PM 46.9228 -118.8708 288° West 224 258 8,700 -1,475 Descending Seattle Center
Sun 03:32:36 PM 46.9439 -118.9586 289° West 227 261 7,000 -1,475 Descending Seattle Center
Sun 03:33:37 PM 46.9658 -119.0494 290° West 234 269 5,700 -1,328 Descending Seattle Center
Sun 03:34:38 PM 46.9875 -119.1403 289° West 233 268 4,300 -1,388 Descending Seattle Center
Sun 03:35:38 PM 47.0236 -119.2386 298° West 242 278 2,900 -645 Descending Seattle Center
Sun 03:36:39 PM 47.0764 -119.2561 347° North 202 232 3,000 -246 Climbing Seattle Center
Sun 03:37:40 PM 47.1317 -119.2822 342° North 195 224 2,400 -738 Descending Seattle Center
Sun 03:38:41 PM 47.1744 -119.3028 342° North 169 194 1,500 -590 Descending Seattle Center
Sun 03:39:42 PM 47.2081 -119.3192 342° North 159 183 1,200 -295 Descending Seattle Center
Sun 03:41:00 PM 47.2086 -119.3191 306° West  Level Estimated

Login

Don't have an account? Register now (free) for customized features, flight alerts, and more!